createdAt,value
2019-02-04T00:00:25.475Z,3.7
2019-02-04T00:01:15.008Z,3.7
2019-02-04T00:02:05.283Z,3.7
2019-02-04T00:02:55.628Z,3.7
2019-02-04T00:03:46.560Z,3.8
2019-02-04T00:04:35.757Z,3.8
2019-02-04T00:05:25.530Z,3.8
2019-02-04T00:06:15.858Z,3.8
2019-02-04T00:07:09.624Z,3.8
2019-02-04T00:07:56.000Z,3.8
2019-02-04T00:08:46.054Z,3.8
2019-02-04T00:09:36.087Z,3.8
2019-02-04T00:10:25.890Z,3.8
2019-02-04T00:11:16.221Z,3.8
2019-02-04T00:12:06.272Z,3.8
2019-02-04T00:12:56.078Z,3.8
2019-02-04T00:13:46.397Z,3.8
2019-02-04T00:14:36.445Z,3.8
2019-02-04T00:15:26.567Z,3.8
2019-02-04T00:16:18.032Z,3.8
2019-02-04T00:17:06.624Z,3.8
2019-02-04T00:17:56.148Z,3.8
2019-02-04T00:18:46.279Z,3.8
2019-02-04T00:19:36.772Z,3.8
2019-02-04T00:20:26.855Z,3.8
2019-02-04T00:21:16.914Z,3.8
2019-02-04T00:22:06.969Z,3.8
2019-02-04T00:22:57.053Z,3.8
2019-02-04T00:23:46.814Z,3.8
2019-02-04T00:24:36.971Z,3.8
2019-02-04T00:25:28.660Z,3.8
2019-02-04T00:26:17.001Z,3.8
2019-02-04T00:27:07.314Z,3.8
2019-02-04T00:27:57.379Z,3.8
2019-02-04T00:28:46.907Z,3.8
2019-02-04T00:29:37.519Z,3.7
2019-02-04T00:30:27.009Z,3.7
2019-02-04T00:31:17.656Z,3.7
2019-02-04T00:32:07.408Z,3.7
2019-02-04T00:32:57.735Z,3.7
2019-02-04T00:33:47.791Z,3.7
2019-02-04T00:34:39.190Z,3.7
2019-02-04T00:35:27.394Z,3.7
2019-02-04T00:36:17.963Z,3.6
2019-02-04T00:37:07.798Z,3.6
2019-02-04T00:37:57.519Z,3.6
2019-02-04T00:38:48.153Z,3.7
2019-02-04T00:39:37.377Z,3.7
2019-02-04T00:40:42.903Z,3.7
2019-02-04T00:41:18.053Z,3.7
2019-02-04T00:42:07.815Z,3.7
2019-02-04T00:42:58.430Z,3.8
2019-02-04T00:43:49.612Z,3.8
2019-02-04T00:44:38.545Z,3.8
2019-02-04T00:45:28.662Z,3.8
2019-02-04T00:46:18.387Z,3.8
2019-02-04T00:47:08.447Z,3.8
2019-02-04T00:47:58.770Z,3.8
2019-02-04T00:48:48.553Z,3.8
2019-02-04T00:49:38.895Z,3.8
2019-02-04T00:50:28.957Z,3.8
2019-02-04T00:51:19.017Z,3.8
2019-02-04T00:52:08.819Z,3.8
2019-02-04T00:53:00.215Z,3.9
2019-02-04T00:53:49.185Z,3.9
2019-02-04T00:54:38.697Z,3.8
2019-02-04T00:55:29.377Z,3.9
2019-02-04T00:56:19.344Z,3.9
2019-02-04T00:57:09.177Z,3.9
2019-02-04T00:57:59.212Z,3.9
2019-02-04T00:58:49.632Z,3.9
2019-02-04T00:59:39.047Z,3.9
2019-02-04T01:00:29.749Z,3.9
2019-02-04T01:01:19.159Z,3.9
2019-02-04T01:02:10.789Z,3.9
2019-02-04T01:02:59.572Z,3.9
2019-02-04T01:03:49.914Z,3.9
2019-02-04T01:04:39.944Z,3.9
2019-02-04T01:05:29.864Z,3.9
2019-02-04T01:06:20.110Z,3.9
2019-02-04T01:07:09.842Z,3.9
2019-02-04T01:08:00.168Z,3.9
2019-02-04T01:08:49.961Z,3.9
2019-02-04T01:09:40.016Z,3.9
2019-02-04T01:10:30.340Z,3.9
2019-02-04T01:11:20.589Z,3.9
2019-02-04T01:12:10.477Z,3.9
2019-02-04T01:13:00.529Z,3.9
2019-02-04T01:13:50.584Z,3.9
2019-02-04T01:14:40.971Z,3.9
2019-02-04T01:15:30.535Z,3.9
2019-02-04T01:16:20.844Z,3.9
2019-02-04T01:17:10.523Z,3.9
2019-02-04T01:18:00.565Z,3.9
2019-02-04T01:18:51.007Z,3.9
2019-02-04T01:19:40.959Z,3.8
2019-02-04T01:20:30.281Z,3.8
2019-02-04T01:21:20.522Z,3.9
2019-02-04T01:22:11.135Z,3.8
2019-02-04T01:23:01.217Z,3.9
2019-02-04T01:23:52.704Z,3.8
2019-02-04T01:24:41.024Z,3.9
2019-02-04T01:25:31.401Z,3.8
2019-02-04T01:26:21.156Z,3.8
2019-02-04T01:27:11.486Z,3.8
2019-02-04T01:28:01.538Z,3.8
2019-02-04T01:28:51.589Z,3.8
2019-02-04T01:29:41.379Z,3.9
2019-02-04T01:30:31.716Z,3.9
2019-02-04T01:31:21.761Z,3.9
2019-02-04T01:32:11.549Z,3.9
2019-02-04T01:33:03.084Z,3.9
2019-02-04T01:33:51.954Z,3.9
2019-02-04T01:34:42.026Z,3.9
2019-02-04T01:35:32.081Z,4
2019-02-04T01:36:21.948Z,4
2019-02-04T01:37:12.171Z,4
2019-02-04T01:38:02.234Z,4
2019-02-04T01:38:52.308Z,4
2019-02-04T01:39:42.372Z,3.9
2019-02-04T01:40:32.421Z,4
2019-02-04T01:41:22.468Z,4
2019-02-04T01:42:12.747Z,3.9
2019-02-04T01:43:02.586Z,3.9
2019-02-04T01:43:52.655Z,4
2019-02-04T01:44:41.865Z,4
2019-02-04T01:45:33.083Z,4
2019-02-04T01:46:22.550Z,4
2019-02-04T01:47:19.960Z,4
2019-02-04T01:48:02.701Z,4
2019-02-04T01:48:52.982Z,4
2019-02-04T01:49:42.767Z,4.1
2019-02-04T01:50:32.845Z,4
2019-02-04T01:51:23.325Z,4
2019-02-04T01:52:13.224Z,4
2019-02-04T01:53:03.004Z,4
2019-02-04T01:53:53.335Z,4
2019-02-04T01:54:44.432Z,4
2019-02-04T01:55:33.457Z,4
2019-02-04T01:56:23.253Z,4
2019-02-04T01:57:13.394Z,3.9
2019-02-04T01:58:03.364Z,3.9
2019-02-04T01:58:53.684Z,3.9
2019-02-04T01:59:43.747Z,3.9
2019-02-04T02:00:33.834Z,3.9
2019-02-04T02:01:23.867Z,3.9
2019-02-04T02:02:13.394Z,3.9
2019-02-04T02:03:03.724Z,3.9
2019-02-04T02:03:55.359Z,4
2019-02-04T02:04:43.813Z,4
2019-02-04T02:05:33.333Z,4
2019-02-04T02:06:23.934Z,4
2019-02-04T02:07:14.009Z,4
2019-02-04T02:08:04.134Z,3.9
2019-02-04T02:08:54.391Z,3.9
2019-02-04T02:09:44.448Z,4
2019-02-04T02:10:34.280Z,4
2019-02-04T02:11:24.283Z,4
2019-02-04T02:12:14.618Z,4.1
2019-02-04T02:13:05.586Z,4
2019-02-04T02:13:54.174Z,4
2019-02-04T02:14:44.541Z,4
2019-02-04T02:15:34.581Z,4
2019-02-04T02:16:24.925Z,3.9
2019-02-04T02:17:26.786Z,3.9
2019-02-04T02:18:05.069Z,3.9
2019-02-04T02:18:54.796Z,3.9
2019-02-04T02:19:45.276Z,3.9
2019-02-04T02:20:35.216Z,3.9
2019-02-04T02:21:24.991Z,3.9
2019-02-04T02:22:15.695Z,3.9
2019-02-04T02:23:05.380Z,3.9
2019-02-04T02:23:55.205Z,3.9
2019-02-04T02:24:45.338Z,3.9
2019-02-04T02:25:36.110Z,3.9
2019-02-04T02:26:25.334Z,3.9
2019-02-04T02:27:15.388Z,3.9
2019-02-04T02:28:05.742Z,3.9
2019-02-04T02:28:55.787Z,3.9
2019-02-04T02:29:45.572Z,3.9
2019-02-04T02:30:35.726Z,3.9
2019-02-04T02:31:25.997Z,3.9
2019-02-04T02:32:15.778Z,3.9
2019-02-04T02:33:06.112Z,3.9
2019-02-04T02:33:55.305Z,3.9
2019-02-04T02:34:47.177Z,3.9
2019-02-04T02:35:35.720Z,3.9
2019-02-04T02:36:26.043Z,3.9
2019-02-04T02:37:16.378Z,3.9
2019-02-04T02:38:05.899Z,3.9
2019-02-04T02:38:55.945Z,3.9
2019-02-04T02:39:46.038Z,3.9
2019-02-04T02:40:36.869Z,3.9
2019-02-04T02:41:26.840Z,3.9
2019-02-04T02:42:16.431Z,3.9
2019-02-04T02:43:06.367Z,3.9
2019-02-04T02:43:57.786Z,3.9
2019-02-04T02:44:46.621Z,3.9
2019-02-04T02:45:37.003Z,3.9
2019-02-04T02:46:26.799Z,3.8
2019-02-04T02:47:16.859Z,3.8
2019-02-04T02:48:06.571Z,3.8
2019-02-04T02:48:57.074Z,3.8
2019-02-04T02:49:47.889Z,3.8
2019-02-04T02:50:37.049Z,3.8
2019-02-04T02:51:26.824Z,3.8
2019-02-04T02:52:17.442Z,3.8
2019-02-04T02:53:08.066Z,3.8
2019-02-04T02:53:57.547Z,3.8
2019-02-04T02:54:47.753Z,3.8
2019-02-04T02:55:37.666Z,3.8
2019-02-04T02:56:27.736Z,3.8
2019-02-04T02:57:17.766Z,3.8
2019-02-04T02:58:07.541Z,3.8
2019-02-04T02:58:57.948Z,3.8
2019-02-04T02:59:47.951Z,3.8
2019-02-04T03:00:37.466Z,3.8
2019-02-04T03:01:28.075Z,3.8
2019-02-04T03:02:19.472Z,3.8
2019-02-04T03:03:08.191Z,3.9
2019-02-04T03:03:58.245Z,3.9
2019-02-04T03:04:48.315Z,3.9
2019-02-04T03:08:20.585Z,3.9
2019-02-04T03:09:11.455Z,3.9
2019-02-04T03:10:00.677Z,3.9
2019-02-04T03:10:50.383Z,3.9
2019-02-04T03:11:40.678Z,3.9
2019-02-04T03:12:30.867Z,3.9
2019-02-04T03:13:20.784Z,3.9
2019-02-04T03:14:10.542Z,3.9
2019-02-04T03:15:01.332Z,3.9
2019-02-04T03:15:50.673Z,3.9
2019-02-04T03:16:41.017Z,3.9
2019-02-04T03:17:30.352Z,3.9
2019-02-04T03:18:22.673Z,3.9
2019-02-04T03:19:10.927Z,3.9
2019-02-04T03:20:01.265Z,3.9
2019-02-04T03:20:51.045Z,3.9
2019-02-04T03:21:41.357Z,3.9
2019-02-04T03:22:31.148Z,4
2019-02-04T03:23:21.507Z,4
2019-02-04T03:24:11.629Z,4
2019-02-04T03:25:01.460Z,4.1
2019-02-04T03:25:51.645Z,4.1
2019-02-04T03:26:41.711Z,4.1
2019-02-04T03:27:33.373Z,4.1
2019-02-04T03:28:21.539Z,4.1
2019-02-04T03:29:11.874Z,4.1
2019-02-04T03:30:01.954Z,4.1
2019-02-04T03:30:52.236Z,4.1
2019-02-04T03:31:48.796Z,4.1
2019-02-04T03:32:32.222Z,4.1
2019-02-04T03:33:22.063Z,4.1
2019-02-04T03:34:11.956Z,4.1
2019-02-04T03:35:02.355Z,4.1
2019-02-04T03:35:52.106Z,4.1
2019-02-04T03:36:43.254Z,4.1
2019-02-04T03:37:32.468Z,4.1
2019-02-04T03:38:22.341Z,4.1
2019-02-04T03:39:12.573Z,4.1
2019-02-04T03:40:02.516Z,4.1
2019-02-04T03:40:52.203Z,4.1
2019-02-04T03:41:42.767Z,4.1
2019-02-04T03:42:32.263Z,4.1
2019-02-04T03:43:22.603Z,4.2
2019-02-04T03:44:12.960Z,4.2
2019-02-04T03:45:02.876Z,4.2
2019-02-04T03:45:53.433Z,4.2
2019-02-04T03:46:43.098Z,4.2
2019-02-04T03:47:33.189Z,4.2
2019-02-04T03:48:22.663Z,4.2
2019-02-04T03:49:13.778Z,4.2
2019-02-04T03:50:03.171Z,4.2
2019-02-04T03:50:53.493Z,4.2
2019-02-04T03:51:43.499Z,4.2
2019-02-04T03:52:33.223Z,4.2
2019-02-04T03:53:23.280Z,4.2
2019-02-04T03:54:13.614Z,4.2
2019-02-04T03:55:03.688Z,4.2
2019-02-04T03:55:53.729Z,4.2
2019-02-04T03:56:43.522Z,4.2
2019-02-04T03:57:33.869Z,4.2
2019-02-04T03:58:24.842Z,4.2
2019-02-04T03:59:13.965Z,4.1
2019-02-04T04:00:04.104Z,4.2
2019-02-04T04:00:53.806Z,4.1
2019-02-04T04:01:44.134Z,4.1
2019-02-04T04:02:33.931Z,4.1
2019-02-04T04:03:24.246Z,4.1
2019-02-04T04:04:14.037Z,4.1
2019-02-04T04:05:04.401Z,4.1
2019-02-04T04:05:54.432Z,4.1
2019-02-04T04:06:44.230Z,4.2
2019-02-04T04:07:35.950Z,4.2
2019-02-04T04:08:24.667Z,4.1
2019-02-04T04:09:14.386Z,4.1
2019-02-04T04:10:04.445Z,4.1
2019-02-04T04:10:54.550Z,4.2
2019-02-04T04:11:44.830Z,4.2
2019-02-04T04:12:34.899Z,4.1
2019-02-04T04:13:25.061Z,4.1
2019-02-04T04:14:15.001Z,4.1
2019-02-04T04:15:05.072Z,4.1
2019-02-04T04:15:55.126Z,4.1
2019-02-04T04:16:45.792Z,4.1
2019-02-04T04:17:35.249Z,4.1
2019-02-04T04:18:24.736Z,4.1
2019-02-04T04:19:15.358Z,4.1
2019-02-04T04:20:05.821Z,4.1
2019-02-04T04:20:55.205Z,4.1
2019-02-04T04:21:45.278Z,4.1
2019-02-04T04:22:35.583Z,4.1
2019-02-04T04:23:25.368Z,4.1
2019-02-04T04:24:15.436Z,4.1
2019-02-04T04:25:05.974Z,4.1
2019-02-04T04:25:56.353Z,4.1
2019-02-04T04:26:45.878Z,4.1
2019-02-04T04:27:35.773Z,4.1
2019-02-04T04:28:25.983Z,4.1
2019-02-04T04:29:16.685Z,4.1
2019-02-04T04:30:06.102Z,4.1
2019-02-04T04:30:56.177Z,4.1
2019-02-04T04:31:45.942Z,4.1
2019-02-04T04:32:36.273Z,4.1
2019-02-04T04:33:26.170Z,4.1
2019-02-04T04:34:15.848Z,4.1
2019-02-04T04:35:07.419Z,4.1
2019-02-04T04:35:56.506Z,4.1
2019-02-04T04:36:46.578Z,4.1
2019-02-04T04:37:36.625Z,4.1
2019-02-04T04:38:27.055Z,4.1
2019-02-04T04:39:16.735Z,4.1
2019-02-04T04:40:06.809Z,4.1
2019-02-04T04:40:56.877Z,4.1
2019-02-04T04:41:46.740Z,4.1
2019-02-04T04:42:37.006Z,4.1
2019-02-04T04:43:27.042Z,4.1
2019-02-04T04:44:17.732Z,4.1
2019-02-04T04:45:07.147Z,4.1
2019-02-04T04:45:56.932Z,4.1
2019-02-04T04:46:46.726Z,4.1
2019-02-04T04:47:38.812Z,4.1
2019-02-04T04:48:28.976Z,4.1
2019-02-04T04:49:17.161Z,4.1
2019-02-04T04:50:07.492Z,4.1
2019-02-04T04:50:57.541Z,4.1
2019-02-04T04:51:47.341Z,4.1
2019-02-04T04:52:37.676Z,4.1
2019-02-04T04:53:27.448Z,4.1
2019-02-04T04:54:17.504Z,4.1
2019-02-04T04:55:07.021Z,4.1
2019-02-04T04:55:57.928Z,4.1
2019-02-04T04:56:48.971Z,4.1
2019-02-04T04:57:38.018Z,4.1
2019-02-04T04:58:28.073Z,4.1
2019-02-04T04:59:18.156Z,4.1
2019-02-04T05:00:07.910Z,4.1
2019-02-04T05:00:58.245Z,4.1
2019-02-04T05:01:48.291Z,4.1
2019-02-04T05:02:38.508Z,4.1
2019-02-04T05:03:28.423Z,4.1
2019-02-04T05:04:18.463Z,4.1
2019-02-04T05:05:08.295Z,4.1
2019-02-04T05:05:59.609Z,4.1
2019-02-04T05:06:48.655Z,4.1
2019-02-04T05:07:38.705Z,4.1
2019-02-04T05:08:28.464Z,4.1
2019-02-04T05:09:18.831Z,4.1
2019-02-04T05:10:08.875Z,4.1
2019-02-04T05:10:58.945Z,4.1
2019-02-04T05:11:49.007Z,4.1
2019-02-04T05:12:38.780Z,4.1
2019-02-04T05:13:29.107Z,4.1
2019-02-04T05:14:18.612Z,4.1
2019-02-04T05:15:10.760Z,4.1
2019-02-04T05:15:59.275Z,4.1
2019-02-04T05:16:49.355Z,4.1
2019-02-04T05:17:39.399Z,4.1
2019-02-04T05:18:40.577Z,4.1
2019-02-04T05:19:19.262Z,4.1
2019-02-04T05:20:09.567Z,4.1
2019-02-04T05:20:59.627Z,4.1
2019-02-04T05:21:49.419Z,4.1
2019-02-04T05:22:39.492Z,4.1
2019-02-04T05:23:29.531Z,4.1
2019-02-04T05:24:20.994Z,4.1
2019-02-04T05:25:09.927Z,4.1
2019-02-04T05:25:59.429Z,4.1
2019-02-04T05:26:49.759Z,4.1
2019-02-04T05:27:41.240Z,4.1
2019-02-04T05:28:30.145Z,4.1
2019-02-04T05:29:20.246Z,4.1
2019-02-04T05:30:10.024Z,4.1
2019-02-04T05:31:00.434Z,4
2019-02-04T05:31:50.399Z,4
2019-02-04T05:32:40.443Z,4.1
2019-02-04T05:33:30.566Z,4
2019-02-04T05:34:20.552Z,4
2019-02-04T05:35:10.328Z,4
2019-02-04T05:36:00.666Z,4
2019-02-04T05:36:51.100Z,4.1
2019-02-04T05:37:40.777Z,4
2019-02-04T05:38:30.853Z,4
2019-02-04T05:39:20.896Z,4
2019-02-04T05:40:10.968Z,4
2019-02-04T05:41:00.756Z,4
2019-02-04T05:41:50.827Z,4
2019-02-04T05:42:41.460Z,4
2019-02-04T05:43:31.198Z,4
2019-02-04T05:44:21.248Z,4
2019-02-04T05:45:11.096Z,4
2019-02-04T05:46:02.488Z,4
2019-02-04T05:46:54.088Z,4
2019-02-04T05:47:41.468Z,3.9
2019-02-04T05:48:31.350Z,3.9
2019-02-04T05:49:21.618Z,3.9
2019-02-04T05:50:11.376Z,4
2019-02-04T05:51:01.727Z,4
2019-02-04T05:51:51.980Z,4
2019-02-04T05:52:41.550Z,4
2019-02-04T05:53:31.952Z,4
2019-02-04T05:54:21.928Z,4
2019-02-04T05:55:13.550Z,3.9
2019-02-04T05:56:02.149Z,4
2019-02-04T05:56:51.820Z,4
2019-02-04T05:57:42.164Z,4
2019-02-04T05:58:35.150Z,4
2019-02-04T05:59:22.297Z,4
2019-02-04T06:00:12.069Z,4
2019-02-04T06:01:02.393Z,4
2019-02-04T06:01:52.457Z,4
2019-02-04T06:02:42.522Z,4
2019-02-04T06:03:32.014Z,4
2019-02-04T06:04:24.062Z,4
2019-02-04T06:06:20.282Z,4
2019-02-04T06:07:10.449Z,4
2019-02-04T06:08:00.392Z,4
2019-02-04T06:08:50.436Z,4
2019-02-04T06:09:40.554Z,4
2019-02-04T06:10:30.283Z,4
2019-02-04T06:11:20.621Z,4
2019-02-04T06:12:10.509Z,4
2019-02-04T06:13:15.441Z,4
2019-02-04T06:14:04.884Z,4
2019-02-04T06:14:42.406Z,4
2019-02-04T06:15:30.628Z,4.1
2019-02-04T06:16:20.963Z,4.1
2019-02-04T06:17:10.751Z,4.1
2019-02-04T06:18:01.097Z,4.1
2019-02-04T06:19:02.778Z,4.1
2019-02-04T06:19:40.641Z,4.1
2019-02-04T06:20:31.251Z,4.1
2019-02-04T06:21:21.020Z,4.1
2019-02-04T06:22:11.083Z,4.1
2019-02-04T06:23:01.613Z,4.1
2019-02-04T06:23:52.545Z,4.1
2019-02-04T06:24:41.278Z,4.1
2019-02-04T06:25:31.621Z,4.1
2019-02-04T06:26:21.698Z,4.2
2019-02-04T06:27:12.588Z,4.2
2019-02-04T06:28:01.498Z,4.3
2019-02-04T06:28:51.830Z,4.3
2019-02-04T06:29:41.900Z,4.3
2019-02-04T06:30:31.665Z,4.3
2019-02-04T06:31:22.103Z,4.3
2019-02-04T06:32:12.060Z,4.3
2019-02-04T06:33:03.327Z,4.3
2019-02-04T06:33:52.177Z,4.4
2019-02-04T06:34:42.328Z,4.4
2019-02-04T06:35:31.460Z,4.4
2019-02-04T06:36:21.794Z,4.4
2019-02-04T06:37:12.388Z,4.4
2019-02-04T06:38:02.467Z,4.5
2019-02-04T06:38:52.259Z,4.5
2019-02-04T06:39:42.517Z,4.5
2019-02-04T06:40:32.378Z,4.5
2019-02-04T06:41:22.707Z,4.6
2019-02-04T06:42:14.214Z,4.6
2019-02-04T06:43:02.814Z,4.6
2019-02-04T06:43:52.586Z,4.6
2019-02-04T06:44:42.906Z,4.6
2019-02-04T06:45:32.984Z,4.6
2019-02-04T06:46:22.506Z,4.7
2019-02-04T06:47:12.814Z,4.7
2019-02-04T06:48:02.899Z,4.7
2019-02-04T06:48:52.954Z,4.8
2019-02-04T06:49:43.284Z,4.8
2019-02-04T06:50:33.087Z,4.8
2019-02-04T06:51:24.349Z,4.8
2019-02-04T06:52:13.179Z,4.8
2019-02-04T06:53:03.828Z,4.8
2019-02-04T06:53:53.031Z,4.9
2019-02-04T06:54:43.355Z,4.9
2019-02-04T06:55:33.268Z,4.9
2019-02-04T06:56:23.464Z,4.9
2019-02-04T06:57:13.263Z,4.9
2019-02-04T06:58:03.620Z,4.9
2019-02-04T06:58:53.353Z,4.9
2019-02-04T06:59:43.961Z,4.9
2019-02-04T07:00:34.992Z,5
2019-02-04T07:01:24.090Z,5
2019-02-04T07:02:13.582Z,5
2019-02-04T07:03:03.977Z,5
2019-02-04T07:03:54.285Z,5.1
2019-02-04T07:06:20.920Z,5.1
2019-02-04T07:07:10.002Z,5.1
2019-02-04T07:08:00.069Z,5.1
2019-02-04T07:08:50.107Z,5.2
2019-02-04T07:09:40.793Z,5.2
2019-02-04T07:10:30.503Z,5.3
2019-02-04T07:11:20.565Z,5.3
2019-02-04T07:12:10.329Z,5.3
2019-02-04T07:13:00.706Z,5.3
2019-02-04T07:13:50.760Z,5.3
2019-02-04T07:14:40.533Z,5.3
2019-02-04T07:15:31.804Z,5.4
2019-02-04T07:16:21.020Z,5.4
2019-02-04T07:17:10.687Z,5.4
2019-02-04T07:18:03.979Z,5.4
2019-02-04T07:18:51.077Z,5.5
2019-02-04T07:19:40.868Z,5.5
2019-02-04T07:20:31.274Z,5.6
2019-02-04T07:21:23.392Z,5.6
2019-02-04T07:22:10.764Z,5.6
2019-02-04T07:23:01.114Z,5.6
2019-02-04T07:23:51.144Z,5.7
2019-02-04T07:24:45.473Z,5.7
2019-02-04T07:25:31.305Z,5.8
2019-02-04T07:26:21.709Z,5.8
2019-02-04T07:27:10.826Z,5.8
2019-02-04T07:28:01.470Z,5.9
2019-02-04T07:28:51.840Z,5.9
2019-02-04T07:29:41.820Z,6
2019-02-04T07:30:31.901Z,6.1
2019-02-04T07:31:21.646Z,6.1
2019-02-04T07:32:12.001Z,6.1
2019-02-04T07:33:01.498Z,6.2
2019-02-04T07:33:53.508Z,6.3
2019-02-04T07:34:42.273Z,6.3
2019-02-04T07:35:32.219Z,6.4
2019-02-04T07:36:22.298Z,6.4
2019-02-04T07:37:12.075Z,6.5
2019-02-04T07:38:02.141Z,6.6
2019-02-04T07:38:52.463Z,6.6
2019-02-04T07:39:42.226Z,6.7
2019-02-04T07:40:32.592Z,6.8
2019-02-04T07:41:22.733Z,6.9
2019-02-04T07:42:12.720Z,6.9
2019-02-04T07:43:04.180Z,7.1
2019-02-04T07:43:52.805Z,7.2
2019-02-04T07:44:42.867Z,7.3
2019-02-04T07:45:32.372Z,7.4
2019-02-04T07:46:25.590Z,7.5
2019-02-04T07:47:12.755Z,7.6
2019-02-04T07:48:02.818Z,7.8
2019-02-04T07:48:52.882Z,7.9
2019-02-04T07:49:43.217Z,8.1
2019-02-04T07:50:33.270Z,8.2
2019-02-04T07:51:23.302Z,8.3
2019-02-04T07:52:14.482Z,8.4
2019-02-04T07:53:03.439Z,8.6
2019-02-04T07:53:53.210Z,8.8
2019-02-04T07:54:43.539Z,8.9
2019-02-04T07:55:33.324Z,9.1
2019-02-04T07:56:23.668Z,9.2
2019-02-04T07:57:13.754Z,9.3
2019-02-04T07:58:03.505Z,9.5
2019-02-04T07:58:53.839Z,9.7
2019-02-04T07:59:43.884Z,9.9
2019-02-04T08:00:33.961Z,10
2019-02-04T08:01:25.414Z,10.1
2019-02-04T08:02:13.632Z,10.3
2019-02-04T08:03:03.856Z,10.4
2019-02-04T08:03:53.901Z,10.6
2019-02-04T08:04:44.044Z,10.8
2019-02-04T08:05:34.029Z,10.9
2019-02-04T08:06:24.074Z,11.1
2019-02-04T08:07:13.564Z,11.4
2019-02-04T08:08:04.488Z,11.6
2019-02-04T08:08:54.658Z,11.8
2019-02-04T08:09:44.343Z,11.9
2019-02-04T08:10:35.933Z,12.1
2019-02-04T08:11:23.898Z,12.4
2019-02-04T08:12:14.501Z,12.6
2019-02-04T08:13:03.723Z,12.8
2019-02-04T08:13:54.878Z,12.9
2019-02-04T08:14:47.524Z,13.3
2019-02-04T08:15:34.450Z,13.4
2019-02-04T08:16:24.788Z,13.6
2019-02-04T08:17:15.118Z,13.9
2019-02-04T08:18:05.210Z,14.2
2019-02-04T08:18:54.674Z,14.5
2019-02-04T08:19:49.938Z,14.8
2019-02-04T08:20:35.421Z,15.1
2019-02-04T08:21:24.840Z,15.3
2019-02-04T08:22:15.175Z,15.6
2019-02-04T08:23:05.399Z,15.9
2019-02-04T08:23:55.305Z,16.2
2019-02-04T08:24:45.627Z,16.4
2019-02-04T08:25:35.731Z,16.7
2019-02-04T08:27:15.812Z,17.3
2019-02-04T08:28:05.846Z,17.6
2019-02-04T08:28:57.110Z,17.9
2019-02-04T08:29:45.967Z,18.1
2019-02-04T08:30:39.469Z,18.3
2019-02-04T08:31:26.195Z,18.6
2019-02-04T08:32:16.143Z,18.8
2019-02-04T08:33:06.232Z,19
2019-02-04T08:33:56.295Z,19.4
2019-02-04T08:34:46.143Z,19.6
2019-02-04T08:35:36.457Z,20
2019-02-04T08:36:26.451Z,20.3
2019-02-04T08:37:16.549Z,20.7
2019-02-04T08:38:08.227Z,20.9
2019-02-04T08:38:56.631Z,21.3
2019-02-04T08:39:46.534Z,21.6
2019-02-04T08:40:36.779Z,21.9
2019-02-04T08:41:26.869Z,22.3
2019-02-04T08:42:16.661Z,22.7
2019-02-04T08:43:06.921Z,23.1
2019-02-04T08:43:57.502Z,23.3
2019-02-04T08:44:46.771Z,23.4
2019-02-04T08:45:37.246Z,23.6
2019-02-04T08:46:26.911Z,23.8
2019-02-04T08:47:26.013Z,24
2019-02-04T08:48:07.121Z,24.2
2019-02-04T08:48:57.048Z,24.4
2019-02-04T08:49:59.122Z,24.6
2019-02-04T08:50:37.183Z,24.8
2019-02-04T08:51:27.227Z,24.9
2019-02-04T08:52:17.278Z,25.1
2019-02-04T08:53:08.788Z,25.2
2019-02-04T08:53:57.681Z,25.3
2019-02-04T08:54:47.496Z,25.4
2019-02-04T08:55:37.808Z,25.5
2019-02-04T08:56:27.878Z,25.6
2019-02-04T08:57:17.188Z,25.7
2019-02-04T08:58:08.053Z,25.7
2019-02-04T08:58:57.613Z,25.8
2019-02-04T08:59:47.823Z,25.9
2019-02-04T09:00:37.875Z,26
2019-02-04T09:01:28.231Z,26
2019-02-04T09:02:19.542Z,26.1
2019-02-04T09:03:07.860Z,26.1
2019-02-04T09:03:58.365Z,26.2
2019-02-04T09:04:48.465Z,26.3
2019-02-04T09:05:38.210Z,26.4
2019-02-04T09:06:28.107Z,26.6
2019-02-04T09:07:18.361Z,26.6
2019-02-04T09:08:09.665Z,26.7
2019-02-04T09:08:58.433Z,26.9
2019-02-04T09:09:48.253Z,27
2019-02-04T09:10:38.873Z,27.1
2019-02-04T09:11:28.592Z,27.3
2019-02-04T09:12:18.722Z,27.4
2019-02-04T09:13:08.450Z,27.4
2019-02-04T09:13:58.769Z,27.5
2019-02-04T09:14:49.118Z,27.6
2019-02-04T09:15:38.908Z,27.6
2019-02-04T09:16:29.046Z,27.6
2019-02-04T09:17:20.214Z,27.7
2019-02-04T09:18:08.241Z,27.9
2019-02-04T09:18:59.384Z,28.1
2019-02-04T09:19:49.216Z,28.4
2019-02-04T09:20:39.519Z,28.7
2019-02-04T09:21:29.299Z,29.1
2019-02-04T09:22:19.736Z,29.5
2019-02-04T09:23:09.639Z,30
2019-02-04T09:23:59.752Z,30.6
2019-02-04T09:24:49.251Z,31.2
2019-02-04T09:25:39.643Z,31.9
2019-02-04T09:26:30.330Z,32.6
2019-02-04T09:27:19.712Z,33.4
2019-02-04T09:28:09.796Z,34
2019-02-04T09:29:00.106Z,34.5
2019-02-04T09:29:50.179Z,35
2019-02-04T09:30:40.232Z,35.3
2019-02-04T09:31:29.706Z,35.5
2019-02-04T09:32:20.970Z,35.7
2019-02-04T09:33:10.110Z,35.9
2019-02-04T09:33:59.895Z,35.9
2019-02-04T09:34:50.248Z,35.9
2019-02-04T09:35:39.720Z,35.9
2019-02-04T09:36:30.630Z,35.9
2019-02-04T09:37:20.711Z,35.9
2019-02-04T09:38:10.801Z,35.9
2019-02-04T09:39:00.837Z,36
2019-02-04T09:39:50.639Z,36.1
2019-02-04T09:40:40.666Z,36.1
2019-02-04T09:41:31.802Z,36.2
2019-02-04T09:42:20.792Z,36.3
2019-02-04T09:43:11.108Z,36.4
2019-02-04T09:44:00.381Z,36.8
2019-02-04T09:44:51.230Z,36.9
2019-02-04T09:45:41.021Z,37.2
2019-02-04T09:46:31.344Z,37.3
2019-02-04T09:47:21.184Z,37.4
2019-02-04T09:48:11.167Z,37.6
2019-02-04T09:49:01.515Z,37.6
2019-02-04T09:49:51.561Z,37.5
2019-02-04T09:50:42.955Z,37.4
2019-02-04T09:51:31.414Z,37.5
2019-02-04T09:52:21.185Z,37.4
2019-02-04T09:53:11.523Z,37.5
2019-02-04T09:54:01.858Z,37.5
2019-02-04T09:54:51.359Z,37.4
2019-02-04T09:55:41.981Z,37.4
2019-02-04T09:56:32.027Z,37.5
2019-02-04T09:57:22.096Z,37.6
2019-02-04T09:58:11.873Z,37.6
2019-02-04T09:59:02.141Z,37.7
2019-02-04T09:59:54.321Z,37.7
2019-02-04T10:00:42.304Z,37.7
2019-02-04T10:01:32.061Z,37.6
2019-02-04T10:02:21.854Z,37.6
2019-02-04T10:03:11.898Z,37.6
2019-02-04T10:04:02.558Z,37.6
2019-02-04T10:04:52.563Z,37.4
2019-02-04T10:07:19.788Z,37.6
2019-02-04T10:08:09.924Z,37.5
2019-02-04T10:09:01.728Z,37.4
2019-02-04T10:09:49.946Z,37.5
2019-02-04T10:10:40.040Z,37.5
2019-02-04T10:11:30.068Z,37.5
2019-02-04T10:12:20.418Z,37.4
2019-02-04T10:13:10.475Z,37.3
2019-02-04T10:14:00.258Z,37.1
2019-02-04T10:14:50.406Z,37
2019-02-04T10:15:40.296Z,37
2019-02-04T10:16:30.938Z,36.9
2019-02-04T10:17:20.866Z,36.9
2019-02-04T10:18:12.343Z,36.8
2019-02-04T10:19:00.196Z,36.7
2019-02-04T10:19:51.201Z,36.5
2019-02-04T10:20:40.388Z,36.4
2019-02-04T10:21:31.124Z,36.3
2019-02-04T10:22:21.311Z,36.1
2019-02-04T10:23:10.966Z,35.9
2019-02-04T10:24:01.338Z,35.9
2019-02-04T10:24:51.156Z,35.8
2019-02-04T10:25:41.548Z,35.6
2019-02-04T10:26:31.547Z,35.5
2019-02-04T10:27:23.081Z,35.4
2019-02-04T10:28:11.810Z,35.3
2019-02-04T10:29:01.548Z,35.2
2019-02-04T10:29:51.791Z,35
2019-02-04T10:30:41.304Z,34.9
2019-02-04T10:31:31.571Z,34.8
2019-02-04T10:32:21.657Z,34.6
2019-02-04T10:33:12.150Z,34.5
2019-02-04T10:34:01.918Z,34.4
2019-02-04T10:34:51.884Z,34.3
2019-02-04T10:35:42.189Z,34.2
2019-02-04T10:36:32.766Z,34.1
2019-02-04T10:37:22.535Z,33.9
2019-02-04T10:38:12.416Z,33.7
2019-02-04T10:39:02.265Z,33.5
2019-02-04T10:39:52.222Z,33.3
2019-02-04T10:40:42.245Z,33.1
2019-02-04T10:41:32.338Z,32.8
2019-02-04T10:42:22.719Z,32.7
2019-02-04T10:43:12.708Z,32.6
2019-02-04T10:44:02.902Z,32.4
2019-02-04T10:44:52.092Z,32.4
2019-02-04T10:45:43.889Z,32.3
2019-02-04T10:46:32.628Z,32.3
2019-02-04T10:47:22.472Z,32.2
2019-02-04T10:48:13.121Z,32.1
2019-02-04T10:49:02.858Z,32.1
2019-02-04T10:49:52.861Z,31.9
2019-02-04T10:50:49.521Z,31.8
2019-02-04T10:51:33.445Z,31.6
2019-02-04T10:52:23.087Z,31.5
2019-02-04T10:53:13.296Z,31.4
2019-02-04T10:54:03.525Z,31.3
2019-02-04T10:54:54.946Z,31.3
2019-02-04T10:55:43.646Z,31.2
2019-02-04T10:56:33.315Z,31.2
2019-02-04T10:57:23.769Z,31.1
2019-02-04T10:58:13.723Z,31.1
2019-02-04T10:59:03.959Z,31.1
2019-02-04T10:59:53.922Z,31.1
2019-02-04T11:00:43.873Z,31.1
2019-02-04T11:01:33.893Z,31.1
2019-02-04T11:02:24.138Z,31.1
2019-02-04T11:03:13.833Z,31.1
2019-02-04T11:04:05.052Z,31
2019-02-04T11:04:53.933Z,31.1
2019-02-04T11:05:44.586Z,31
2019-02-04T11:06:33.662Z,31
2019-02-04T11:07:23.801Z,31
2019-02-04T11:08:14.729Z,31
2019-02-04T11:09:04.395Z,30.9
2019-02-04T11:09:54.751Z,30.9
2019-02-04T11:10:44.474Z,30.9
2019-02-04T11:11:34.636Z,30.9
2019-02-04T11:12:24.622Z,30.9
2019-02-04T11:13:16.084Z,30.9
2019-02-04T11:14:04.875Z,30.9
2019-02-04T11:14:55.028Z,30.9
2019-02-04T11:15:44.952Z,30.9
2019-02-04T11:16:34.950Z,30.9
2019-02-04T11:17:25.073Z,31
2019-02-04T11:18:15.215Z,31
2019-02-04T11:19:04.996Z,30.9
2019-02-04T11:19:55.308Z,30.9
2019-02-04T11:20:57.075Z,30.9
2019-02-04T11:21:34.779Z,30.8
2019-02-04T11:22:26.541Z,30.8
2019-02-04T11:23:15.010Z,30.8
2019-02-04T11:24:05.609Z,30.8
2019-02-04T11:24:55.742Z,30.7
2019-02-04T11:25:45.678Z,30.6
2019-02-04T11:26:35.393Z,30.6
2019-02-04T11:27:25.871Z,30.6
2019-02-04T11:28:15.787Z,30.5
2019-02-04T11:29:05.785Z,30.4
2019-02-04T11:29:56.017Z,30.4
2019-02-04T11:30:46.125Z,30.4
2019-02-04T11:31:36.714Z,30.4
2019-02-04T11:32:25.997Z,30.3
2019-02-04T11:33:16.236Z,30.3
2019-02-04T11:34:06.100Z,30.3
2019-02-04T11:34:55.820Z,30.3
2019-02-04T11:35:46.384Z,30.2